Lord Howe Island Airport

Airport
ICAO code: 
YLHI
IATA Code: 
LDH
Summary
ICAO Region: 
APAC
Territory: 
Location: 
Lord Howe Island, New South Wales
Serving: 
Lord Howe Island
Elevation: 
5 ft
Coordinates: 
Aerial View: 
31° 32' 17.88" S, 159° 4' 37.2" E
Metar
Observation
YLHI 302230Z AUTO 02008KT 9999 // SCT005 SCT012 OVC019 22/19 Q1016
Station
Lord Howe Island Airport
Date/Time
2021-11-30 22:30:00
Wind direction
20°
Wind speed
08 kts
Lowest cloud amount
scattered clouds
Temperature
22°C
Dew point
19°C
Humidity
83%
QNH
1016 hPa
Weather condition
n/a

Runways

Designator Length Width Surface Rops
10/28 886 0 B Yes/Yes
Airport map: 
Aerial View: 

SKYbrary Partners:

Safety knowledge contributed by: